Time;durP1;ratioP1;P1;durP2;ratioP2;P2;SDS_P1;SDS_P2;PMS_P1;PMS_P2;Temp;Humidity;BMP_temperature;BMP_pressure;BME280_temperature;BME280_humidity;BME280_pressure;Samples;Min_cycle;Max_cycle;Signal;HPM_P1;HPM_P2
2023/08/11 00:03:00;;;;;;;15.50;4.20;;;;;;;19.90;43.83;99468.02;135348;1264;22553;-60
2023/08/11 00:06:03;;;;;;;;;;;;;;;19.83;43.68;99465.66;135385;1264;22538;-61
2023/08/11 00:09:08;;;;;;;20.20;5.10;;;;;;;19.80;43.80;99467.88;135330;1264;22540;-60
2023/08/11 00:12:11;;;;;;;16.50;4.90;;;;;;;19.84;43.69;99466.58;135369;1280;22534;-60
2023/08/11 00:15:13;;;;;;;15.30;4.20;;;;;;;19.83;43.71;99460.52;135355;1281;22524;-60
2023/08/11 00:18:16;;;;;;;15.50;4.40;;;;;;;19.67;43.63;99459.73;135379;1280;22540;-61
2023/08/11 00:21:18;;;;;;;;;;;;;;;19.66;43.78;99459.84;135188;1281;22989;-59
2023/08/11 00:24:20;;;;;;;21.20;5.90;;;;;;;19.65;43.82;99461.70;135370;1280;22525;-62
2023/08/11 00:27:23;;;;;;;19.20;5.20;;;;;;;19.31;44.13;99463.05;135375;1280;25513;-61
2023/08/11 00:30:25;;;;;;;14.20;3.80;;;;;;;19.50;43.83;99459.63;135360;1280;22522;-65
2023/08/11 00:33:27;;;;;;;14.40;4.00;;;;;;;19.48;43.87;99461.44;135341;1280;22539;-62
2023/08/11 00:36:30;;;;;;;14.60;3.80;;;;;;;19.34;44.06;99463.38;135380;1280;23834;-62
2023/08/11 00:39:32;;;;;;;15.80;4.90;;;;;;;19.24;44.41;99463.02;135350;1280;22526;-65
2023/08/11 00:42:35;;;;;;;18.60;5.20;;;;;;;19.45;43.76;99458.15;135375;1280;22537;-62
2023/08/11 00:45:38;;;;;;;;;;;;;;;19.52;43.57;99452.95;135391;1281;22557;-62
2023/08/11 00:48:40;;;;;;;25.10;7.30;;;;;;;19.23;44.11;99449.26;135358;1280;22590;-65
2023/08/11 00:51:43;;;;;;;26.10;7.10;;;;;;;19.01;44.56;99452.18;135402;1280;22540;-63
2023/08/11 00:54:46;;;;;;;28.80;7.10;;;;;;;19.09;44.25;99446.76;135336;1280;22533;-60
2023/08/11 00:57:49;;;;;;;21.90;4.90;;;;;;;19.04;44.27;99449.17;135288;1264;22556;-64
2023/08/11 01:00:52;;;;;;;;;;;;;;;18.94;44.38;99452.63;135380;1280;22505;-64
2023/08/11 01:03:54;;;;;;;12.50;3.90;;;;;;;18.90;44.44;99458.27;135316;1280;24285;-64
2023/08/11 01:06:56;;;;;;;;;;;;;;;18.83;44.52;99457.61;135284;1281;22561;-59
2023/08/11 01:09:59;;;;;;;11.80;3.70;;;;;;;18.87;44.26;99457.46;135386;1280;22556;-63
2023/08/11 01:13:01;;;;;;;16.70;4.60;;;;;;;18.85;44.26;99456.08;135375;1281;22586;-64
2023/08/11 01:16:04;;;;;;;;;;;;;;;18.73;44.38;99453.09;135370;1281;22526;-61
2023/08/11 01:19:06;;;;;;;30.70;9.10;;;;;;;18.63;44.30;99452.91;135365;1280;22544;-60
2023/08/11 01:22:09;;;;;;;32.90;14.20;;;;;;;18.65;44.36;99453.34;135349;1281;22571;-61
2023/08/11 01:25:12;;;;;;;25.70;9.30;;;;;;;18.64;44.35;99452.16;135369;1280;22536;-60
2023/08/11 01:28:14;;;;;;;23.10;6.20;;;;;;;18.69;44.09;99451.91;135258;1281;22727;-63
2023/08/11 01:31:17;;;;;;;;;;;;;;;18.68;44.17;99451.83;135305;1281;23964;-60
2023/08/11 01:34:19;;;;;;;21.80;5.00;;;;;;;18.67;44.16;99450.45;135346;1280;22513;-62
2023/08/11 01:37:21;;;;;;;12.50;4.00;;;;;;;18.72;44.23;99459.06;135377;1281;22560;-60
2023/08/11 01:40:24;;;;;;;;;;;;;;;18.75;44.22;99455.83;135382;1258;22518;-63
2023/08/11 01:43:26;;;;;;;13.80;3.90;;;;;;;18.85;43.99;99454.65;135355;1280;22550;-63
2023/08/11 01:46:29;;;;;;;22.60;5.00;;;;;;;18.70;44.00;99452.65;135287;1281;24272;-59
2023/08/11 01:49:31;;;;;;;15.60;3.90;;;;;;;18.62;44.06;99446.95;135314;1280;22539;-63
2023/08/11 01:52:33;;;;;;;12.50;3.80;;;;;;;18.46;44.39;99446.20;135361;1280;25477;-61
2023/08/11 01:55:36;;;;;;;16.80;4.70;;;;;;;18.30;44.53;99444.85;135323;1278;22525;-62
2023/08/11 01:58:38;;;;;;;17.90;5.00;;;;;;;18.34;44.48;99439.96;135361;1280;22536;-61
2023/08/11 02:01:41;;;;;;;;;;;;;;;18.28;44.48;99443.41;135298;1281;22661;-63
2023/08/11 02:04:43;;;;;;;22.00;5.90;;;;;;;18.22;44.49;99443.94;135369;1281;22539;-62
2023/08/11 02:07:46;;;;;;;21.80;5.90;;;;;;;18.23;44.52;99444.54;135317;1281;24262;-61
2023/08/11 02:10:48;;;;;;;22.20;6.00;;;;;;;18.31;44.43;99443.19;135280;1281;25259;-62
2023/08/11 02:13:51;;;;;;;18.80;5.50;;;;;;;18.25;44.40;99447.25;135181;1281;22558;-59
2023/08/11 02:16:53;;;;;;;18.10;4.60;;;;;;;18.04;44.67;99447.90;135371;1281;22537;-63
2023/08/11 02:19:56;;;;;;;;;;;;;;;18.04;44.70;99446.51;135356;1281;22517;-60
2023/08/11 02:22:58;;;;;;;26.40;6.30;;;;;;;18.07;44.64;99444.11;135364;1281;22540;-60
2023/08/11 02:26:01;;;;;;;;;;;;;;;18.08;44.50;99448.25;135301;1262;22958;-62
2023/08/11 02:29:03;;;;;;;18.20;5.10;;;;;;;18.08;44.42;99447.38;135268;1280;23955;-60
2023/08/11 02:32:07;;;;;;;15.80;4.30;;;;;;;17.94;44.74;99452.04;135362;1280;25419;-60
2023/08/11 02:35:10;;;;;;;16.60;4.50;;;;;;;17.96;44.75;99448.01;135350;1280;22617;-60
2023/08/11 02:38:13;;;;;;;17.30;6.10;;;;;;;18.03;44.38;99447.84;135245;1280;22550;-63
2023/08/11 02:41:16;;;;;;;;;;;;;;;17.92;44.75;99450.15;135350;1261;22514;-61
2023/08/11 02:44:18;;;;;;;17.50;4.90;;;;;;;17.83;44.83;99450.09;135368;1280;22573;-63
2023/08/11 02:47:20;;;;;;;;;;;;;;;17.77;44.91;99454.35;135357;1280;22514;-63
2023/08/11 02:50:23;;;;;;;15.80;4.70;;;;;;;17.99;44.33;99455.33;135381;1280;22536;-63
2023/08/11 02:53:25;;;;;;;25.50;5.30;;;;;;;18.12;44.02;99454.90;135348;1280;22537;-64
2023/08/11 02:56:28;;;;;;;17.60;4.60;;;;;;;18.04;44.15;99458.88;135198;1280;22520;-59
2023/08/11 02:59:30;;;;;;;21.70;6.20;;;;;;;17.87;44.32;99459.88;135234;1280;22554;-60
2023/08/11 03:02:32;;;;;;;16.40;4.50;;;;;;;17.88;44.22;99459.30;135315;1280;22528;-59
2023/08/11 03:05:35;;;;;;;;;;;;;;;17.71;44.40;99462.90;135378;1280;22535;-66
2023/08/11 03:08:37;;;;;;;18.40;4.30;;;;;;;17.79;44.22;99462.48;135344;1280;22535;-64
2023/08/11 03:11:40;;;;;;;;;;;;;;;17.68;44.44;99461.89;135324;1280;22515;-63
2023/08/11 03:14:42;;;;;;;16.90;4.70;;;;;;;17.78;44.24;99467.85;135369;1280;22582;-68
2023/08/11 03:17:45;;;;;;;17.50;5.30;;;;;;;17.78;44.33;99467.63;135278;1280;22566;-64
2023/08/11 03:20:47;;;;;;;20.70;5.00;;;;;;;17.83;44.35;99463.77;135331;1280;22577;-65
2023/08/11 03:23:49;;;;;;;19.40;4.90;;;;;;;17.79;44.37;99463.02;135338;1262;22530;-65
2023/08/11 03:26:52;;;;;;;19.20;4.90;;;;;;;17.60;44.74;99463.64;135299;1281;22533;-63
2023/08/11 03:29:55;;;;;;;23.90;6.60;;;;;;;17.48;44.91;99465.33;135299;1269;22546;-65
2023/08/11 03:32:57;;;;;;;20.20;5.40;;;;;;;17.53;44.88;99466.79;135346;1280;22545;-65
2023/08/11 03:36:00;;;;;;;17.00;4.40;;;;;;;17.62;44.56;99465.95;135353;1280;24482;-62
2023/08/11 03:39:03;;;;;;;15.20;3.70;;;;;;;17.61;44.42;99470.42;135309;1280;22519;-63
2023/08/11 03:42:05;;;;;;;21.20;4.60;;;;;;;17.57;44.46;99468.59;135309;1281;22526;-65
2023/08/11 03:45:08;;;;;;;23.40;6.90;;;;;;;17.51;44.66;99470.36;135350;1261;22559;-62
2023/08/11 03:48:10;;;;;;;25.70;6.80;;;;;;;17.60;44.78;99472.61;135356;1280;22555;-60
2023/08/11 03:51:13;;;;;;;28.90;8.00;;;;;;;17.81;44.62;99475.95;135361;1261;22534;-61
2023/08/11 03:54:15;;;;;;;26.00;6.60;;;;;;;17.84;44.71;99477.47;135327;1280;24382;-62
2023/08/11 03:57:17;;;;;;;23.20;6.80;;;;;;;17.99;44.58;99484.03;135329;1261;22526;-64
2023/08/11 04:00:20;;;;;;;24.40;6.90;;;;;;;18.21;44.37;99485.30;135340;1280;22523;-63
2023/08/11 04:03:23;;;;;;;19.70;5.20;;;;;;;18.37;44.42;99486.80;135276;1280;22650;-62
2023/08/11 04:06:32;;;;;;;19.20;4.90;;;;;;;18.74;43.85;99487.23;135341;1280;25295;-61
2023/08/11 04:09:34;;;;;;;18.10;4.60;;;;;;;18.94;43.62;99486.50;135333;1280;22551;-63
2023/08/11 04:12:37;;;;;;;;;;;;;;;19.15;43.24;99488.41;135281;1280;22523;-64
2023/08/11 04:15:40;;;;;;;19.00;5.40;;;;;;;19.14;43.38;99488.54;135346;1280;22520;-60
2023/08/11 04:18:42;;;;;;;18.60;5.10;;;;;;;19.28;43.39;99487.34;135331;1280;22525;-61
2023/08/11 04:21:44;;;;;;;16.10;4.40;;;;;;;19.50;43.31;99487.15;135328;1281;22548;-63
2023/08/11 04:24:47;;;;;;;18.20;4.90;;;;;;;19.75;43.08;99488.52;135322;1280;22565;-64
2023/08/11 04:27:49;;;;;;;14.10;4.00;;;;;;;19.97;43.04;99490.86;135346;1280;26460;-63
2023/08/11 04:30:52;;;;;;;;;;;;;;;20.16;42.86;99485.21;135358;1280;22678;-61
2023/08/11 04:33:54;;;;;;;21.10;5.20;;;;;;;20.29;42.90;99482.08;135311;1279;25508;-64
2023/08/11 04:36:56;;;;;;;18.30;5.10;;;;;;;20.70;42.66;99478.56;135334;1259;22569;-64
2023/08/11 04:39:59;;;;;;;17.10;4.80;;;;;;;21.09;42.30;99482.05;135360;1280;24155;-60
2023/08/11 04:43:01;;;;;;;17.90;4.90;;;;;;;21.28;42.31;99480.34;135322;1280;22526;-61
2023/08/11 04:46:04;;;;;;;;;;;;;;;21.53;42.22;99486.38;135354;1280;22503;-60
2023/08/11 04:49:07;;;;;;;22.90;7.60;;;;;;;21.69;42.43;99488.08;135316;1281;22541;-59
2023/08/11 04:52:09;;;;;;;17.20;4.70;;;;;;;21.96;42.21;99487.80;135165;1280;23005;-60
2023/08/11 04:55:12;;;;;;;15.60;4.70;;;;;;;22.22;42.19;99491.10;135313;1280;22534;-60
2023/08/11 04:58:15;;;;;;;16.20;4.90;;;;;;;22.32;42.31;99492.08;135309;1280;22518;-60
2023/08/11 05:01:17;;;;;;;;;;;;;;;22.63;41.98;99491.91;135367;1280;22489;-61
2023/08/11 05:04:20;;;;;;;14.30;4.70;;;;;;;22.92;41.96;99493.20;135367;1280;22523;-62
2023/08/11 05:07:22;;;;;;;20.60;5.40;;;;;;;23.22;42.01;99496.95;135344;1280;22520;-64
2023/08/11 05:10:24;;;;;;;19.70;5.50;;;;;;;23.48;42.02;99500.39;135354;1280;22545;-60
2023/08/11 05:13:27;;;;;;;;;;;;;;;23.63;41.95;99500.79;135291;1280;22544;-62
2023/08/11 05:16:29;;;;;;;19.80;6.20;;;;;;;23.84;41.93;99496.58;135353;1281;22533;-63
2023/08/11 05:19:32;;;;;;;;;;;;;;;24.17;42.00;99499.87;135243;1280;22515;-63
2023/08/11 05:22:35;;;;;;;22.00;6.30;;;;;;;24.40;42.08;99498.27;135324;1280;22682;-61
2023/08/11 05:25:37;;;;;;;26.30;8.00;;;;;;;24.64;42.22;99500.89;135336;1281;22564;-63
2023/08/11 05:28:39;;;;;;;;;;;;;;;24.94;41.90;99498.59;135076;1281;23526;-60
2023/08/11 05:31:42;;;;;;;26.50;8.90;;;;;;;25.05;42.05;99501.46;134995;1281;25378;-58
2023/08/11 05:34:45;;;;;;;21.90;7.10;;;;;;;25.29;42.27;99504.91;135040;1280;22559;-57
2023/08/11 05:37:48;;;;;;;;;;;;;;;25.53;42.00;99506.17;135071;1281;22522;-58
2023/08/11 05:40:50;;;;;;;23.90;7.80;;;;;;;25.58;41.99;99501.98;135086;1281;22543;-58
2023/08/11 05:43:53;;;;;;;;;;;;;;;25.74;41.68;99497.82;135336;1281;22685;-60
2023/08/11 05:46:55;;;;;;;23.20;6.70;;;;;;;25.97;41.71;99496.64;135328;1281;22535;-59
2023/08/11 05:49:57;;;;;;;23.20;6.60;;;;;;;26.21;41.22;99493.05;135265;1280;22598;-63
2023/08/11 05:53:00;;;;;;;24.00;7.00;;;;;;;26.12;41.59;99494.92;135321;1280;22523;-59
2023/08/11 05:56:02;;;;;;;23.60;6.60;;;;;;;26.49;41.53;99494.48;135332;1281;22530;-60
2023/08/11 05:59:05;;;;;;;;;;;;;;;26.86;41.67;99494.33;135348;1281;22536;-60
2023/08/11 06:02:07;;;;;;;23.20;6.50;;;;;;;27.21;41.08;99494.40;135321;1280;22523;-63
2023/08/11 06:05:09;;;;;;;21.20;6.40;;;;;;;27.29;40.95;99493.94;135262;1280;22534;-61
2023/08/11 06:08:12;;;;;;;20.70;5.60;;;;;;;27.61;40.97;99495.09;135329;1280;22523;-59
2023/08/11 06:11:14;;;;;;;15.60;4.80;;;;;;;27.75;40.30;99494.91;135329;1280;25371;-61
2023/08/11 06:14:17;;;;;;;19.00;4.80;;;;;;;27.98;40.18;99490.39;135302;1280;22547;-59
2023/08/11 06:17:19;;;;;;;16.10;4.50;;;;;;;27.91;38.11;99495.64;135303;1280;22526;-61
2023/08/11 06:20:22;;;;;;;18.70;5.70;;;;;;;27.78;37.57;99500.26;135221;1280;22546;-60
2023/08/11 06:23:24;;;;;;;19.80;5.30;;;;;;;27.43;37.17;99501.23;135326;1280;22528;-60
2023/08/11 06:26:26;;;;;;;20.30;5.60;;;;;;;27.39;37.26;99505.14;135310;1280;22544;-59
2023/08/11 06:29:29;;;;;;;20.30;5.60;;;;;;;27.56;37.35;99507.83;135199;1275;22603;-58
2023/08/11 06:32:31;;;;;;;20.30;5.60;;;;;;;27.88;37.13;99504.45;135311;1280;22528;-60
2023/08/11 06:35:34;;;;;;;19.50;5.40;;;;;;;27.63;37.43;99509.08;135340;1280;22550;-61
2023/08/11 06:38:36;;;;;;;16.70;5.10;;;;;;;27.65;37.55;99508.06;135342;1280;22611;-60
2023/08/11 06:41:39;;;;;;;19.00;5.10;;;;;;;27.73;37.58;99508.61;135323;1280;22565;-61
2023/08/11 06:44:41;;;;;;;19.00;4.90;;;;;;;27.80;37.24;99505.76;135296;1280;22529;-60
2023/08/11 06:47:44;;;;;;;18.30;4.60;;;;;;;28.16;37.36;99510.58;135287;1280;22589;-60
2023/08/11 06:50:46;;;;;;;18.30;4.40;;;;;;;28.48;36.32;99512.64;135330;1280;25367;-59
2023/08/11 06:53:49;;;;;;;14.80;4.10;;;;;;;28.57;35.87;99510.32;135293;1280;24223;-59
2023/08/11 06:56:51;;;;;;;15.00;4.20;;;;;;;28.94;36.24;99507.55;135249;1280;22540;-60
2023/08/11 06:59:53;;;;;;;16.20;4.70;;;;;;;29.08;35.14;99512.64;135247;1280;22539;-60
2023/08/11 07:02:56;;;;;;;15.90;4.20;;;;;;;28.97;34.76;99515.64;135310;1280;22548;-61
2023/08/11 07:05:58;;;;;;;16.20;4.10;;;;;;;29.16;35.08;99513.20;135314;1263;22534;-61
2023/08/11 07:09:01;;;;;;;16.80;4.30;;;;;;;29.32;35.76;99518.13;135313;1266;22754;-61
2023/08/11 07:12:03;;;;;;;16.80;4.30;;;;;;;29.69;35.08;99515.80;135261;1280;22523;-60
2023/08/11 07:15:05;;;;;;;14.80;3.70;;;;;;;29.95;34.54;99514.02;135327;1280;22526;-60
2023/08/11 07:18:08;;;;;;;16.30;4.10;;;;;;;30.30;34.25;99515.70;135307;1280;22574;-62
2023/08/11 07:21:10;;;;;;;13.70;3.80;;;;;;;30.41;33.08;99516.77;135313;1280;22526;-62
2023/08/11 07:24:13;;;;;;;12.70;3.60;;;;;;;30.23;32.92;99520.77;135291;1280;22556;-60
2023/08/11 07:27:15;;;;;;;15.10;3.80;;;;;;;30.30;32.85;99522.78;135355;1280;24431;-62
2023/08/11 07:30:17;;;;;;;15.00;3.70;;;;;;;30.34;33.25;99522.80;135298;1280;22516;-65
2023/08/11 07:33:20;;;;;;;14.90;3.60;;;;;;;30.56;32.65;99523.65;135322;1280;22528;-65
2023/08/11 07:36:22;;;;;;;14.90;4.20;;;;;;;30.30;31.72;99525.80;135202;1280;22533;-62
2023/08/11 07:39:25;;;;;;;14.70;3.40;;;;;;;30.10;32.41;99524.65;135223;1280;22549;-61
2023/08/11 07:42:27;;;;;;;13.30;3.70;;;;;;;30.08;33.16;99524.40;135251;1280;24213;-60
2023/08/11 07:45:29;;;;;;;12.50;3.60;;;;;;;30.21;32.07;99525.09;135117;1280;22612;-61
2023/08/11 07:48:32;;;;;;;11.10;3.60;;;;;;;30.23;32.37;99524.90;135293;1280;22535;-62
2023/08/11 07:51:34;;;;;;;11.70;3.30;;;;;;;30.58;32.07;99525.47;135285;1281;24267;-60
2023/08/11 07:54:37;;;;;;;12.20;3.30;;;;;;;30.79;31.45;99527.06;135354;1281;23026;-64
2023/08/11 07:57:39;;;;;;;19.00;3.80;;;;;;;30.87;30.72;99521.77;135241;1268;23067;-60
2023/08/11 08:00:41;;;;;;;12.00;3.30;;;;;;;31.03;31.37;99524.05;135332;1281;22523;-64
2023/08/11 08:03:44;;;;;;;10.40;2.90;;;;;;;31.54;31.39;99521.17;135304;1280;24262;-60
2023/08/11 08:06:46;;;;;;;7.30;2.50;;;;;;;31.79;30.02;99519.00;135336;1280;22523;-65
2023/08/11 08:09:49;;;;;;;10.80;2.50;;;;;;;31.94;30.03;99519.77;135336;1263;22537;-62
2023/08/11 08:12:51;;;;;;;8.00;2.30;;;;;;;32.21;29.68;99521.13;135296;1280;22530;-60
2023/08/11 08:15:53;;;;;;;7.60;2.40;;;;;;;32.51;29.47;99520.23;135277;1281;22555;-60
2023/08/11 08:18:56;;;;;;;10.30;2.60;;;;;;;32.72;28.84;99520.77;135341;1280;22533;-61
2023/08/11 08:21:58;;;;;;;9.30;2.50;;;;;;;32.95;29.00;99519.48;135290;1280;24231;-60
2023/08/11 08:25:01;;;;;;;6.70;2.30;;;;;;;33.31;28.61;99515.24;135294;1281;22549;-64
2023/08/11 08:28:03;;;;;;;5.80;2.20;;;;;;;33.19;27.81;99517.75;135317;1280;22544;-60
2023/08/11 08:31:05;;;;;;;6.60;2.10;;;;;;;32.94;26.30;99523.16;135346;1280;22540;-60
2023/08/11 08:34:08;;;;;;;6.70;2.20;;;;;;;32.78;26.91;99519.50;135300;1281;22532;-61
2023/08/11 08:37:11;;;;;;;8.20;2.30;;;;;;;33.15;27.05;99520.48;135301;1281;22526;-63
2023/08/11 08:40:13;;;;;;;7.10;2.00;;;;;;;33.33;26.68;99519.83;135290;1280;22533;-61
2023/08/11 08:43:16;;;;;;;8.50;2.10;;;;;;;33.00;25.98;99522.48;135326;1280;22538;-62
2023/08/11 08:46:19;;;;;;;6.10;2.20;;;;;;;32.64;25.24;99522.52;135341;1280;22564;-66
2023/08/11 08:49:21;;;;;;;7.50;2.00;;;;;;;32.71;26.27;99521.17;135324;1271;22653;-63
2023/08/11 08:52:24;;;;;;;5.50;2.20;;;;;;;33.00;26.43;99520.13;135278;1281;22530;-61
2023/08/11 08:55:26;;;;;;;7.60;2.10;;;;;;;33.25;26.04;99521.74;135344;1281;22523;-62
2023/08/11 08:58:29;;;;;;;4.80;2.40;;;;;;;33.76;26.81;99519.98;135315;1281;22540;-65
2023/08/11 09:01:31;;;;;;;10.80;2.40;;;;;;;34.41;26.30;99518.95;135314;1280;22643;-62
2023/08/11 09:04:34;;;;;;;8.20;2.60;;;;;;;34.90;25.31;99519.37;135324;1281;22538;-62
2023/08/11 09:07:36;;;;;;;10.50;2.60;;;;;;;34.39;24.18;99527.77;135125;1281;22810;-62
2023/08/11 09:10:38;;;;;;;5.40;2.10;;;;;;;33.74;24.33;99525.59;135297;1281;22527;-61
2023/08/11 09:13:41;;;;;;;10.40;2.20;;;;;;;33.91;24.92;99520.20;135341;1281;22604;-65
2023/08/11 09:16:43;;;;;;;8.00;2.40;;;;;;;34.30;24.37;99522.22;135332;1281;22561;-60
2023/08/11 09:19:46;;;;;;;6.40;1.90;;;;;;;34.10;23.65;99528.80;135301;1281;22532;-63
2023/08/11 09:22:48;;;;;;;9.90;2.20;;;;;;;33.93;24.90;99519.80;135288;1280;22569;-62
2023/08/11 09:25:51;;;;;;;8.80;2.50;;;;;;;34.14;24.40;99519.52;135345;1281;22642;-63
2023/08/11 09:28:53;;;;;;;8.20;2.10;;;;;;;34.35;24.08;99516.59;135268;1281;22528;-63
2023/08/11 09:31:56;;;;;;;9.50;2.50;;;;;;;34.27;23.99;99517.06;135359;1281;22522;-62
2023/08/11 09:34:58;;;;;;;9.70;2.00;;;;;;;33.90;24.72;99520.98;135320;1280;25795;-61
2023/08/11 09:38:00;;;;;;;7.10;2.20;;;;;;;34.12;23.70;99519.61;135320;1281;22541;-63
2023/08/11 09:41:03;;;;;;;7.40;2.40;;;;;;;33.95;23.20;99523.25;135316;1280;22541;-61
2023/08/11 09:44:06;;;;;;;6.90;2.40;;;;;;;33.90;23.49;99523.43;135320;1281;22553;-61
2023/08/11 09:47:08;;;;;;;8.00;2.40;;;;;;;34.23;23.83;99519.76;135161;1281;22711;-58
2023/08/11 09:50:11;;;;;;;7.40;2.30;;;;;;;35.27;24.02;99515.63;135112;1263;22682;-59
2023/08/11 09:53:14;;;;;;;12.00;2.70;;;;;;;36.14;23.56;99519.98;136054;1281;23191;-58
2023/08/11 09:56:16;;;;;;;6.50;2.20;;;;;;;36.16;22.59;99517.60;135179;1262;22553;-60
2023/08/11 09:59:27;;;;;;;7.90;2.20;;;;;;;35.56;23.04;99518.81;131120;1281;5389527;-59
2023/08/11 10:02:30;;;;;;;9.60;2.60;;;;;;;34.82;22.89;99519.11;135218;1281;22537;-63
2023/08/11 10:05:32;;;;;;;7.00;2.50;;;;;;;34.46;22.90;99519.05;135349;1281;22540;-59
2023/08/11 10:08:34;;;;;;;9.20;2.80;;;;;;;34.24;23.26;99520.87;135104;1281;22525;-64
2023/08/11 10:11:37;;;;;;;10.20;2.50;;;;;;;34.25;23.51;99517.05;135365;1262;22574;-62
2023/08/11 10:14:39;;;;;;;6.10;2.20;;;;;;;34.31;24.33;99519.20;135358;1281;22530;-63
2023/08/11 10:17:42;;;;;;;11.00;2.70;;;;;;;34.30;24.98;99516.75;135321;1281;22529;-64
2023/08/11 10:20:46;;;;;;;9.60;2.60;;;;;;;34.11;24.58;99518.52;135302;1278;24269;-60
2023/08/11 10:23:48;;;;;;;10.70;2.50;;;;;;;34.49;23.79;99512.84;135336;1281;22526;-65
2023/08/11 10:26:51;;;;;;;9.30;2.60;;;;;;;35.22;24.00;99508.18;135221;1281;22536;-61
2023/08/11 10:29:53;;;;;;;8.70;2.30;;;;;;;35.12;22.83;99507.68;135302;1281;22611;-61
2023/08/11 10:32:57;;;;;;;7.80;2.20;;;;;;;35.08;22.94;99503.92;135321;1262;25449;-66
2023/08/11 10:35:59;;;;;;;8.20;2.60;;;;;;;34.09;23.33;99509.20;135331;1281;22548;-65
2023/08/11 10:39:03;;;;;;;6.20;2.40;;;;;;;34.32;23.99;99506.03;135072;1281;22538;-59
2023/08/11 10:42:05;;;;;;;12.60;2.60;;;;;;;35.33;23.93;99506.12;135235;1281;25263;-61
2023/08/11 10:45:08;;;;;;;8.40;2.60;;;;;;;35.99;22.96;99503.33;135331;1281;22540;-62
2023/08/11 10:48:10;;;;;;;10.60;2.60;;;;;;;35.79;23.14;99501.95;135376;1281;22542;-61
2023/08/11 10:51:13;;;;;;;7.90;2.40;;;;;;;36.03;23.55;99498.44;135337;1280;25529;-59
2023/08/11 10:54:15;;;;;;;6.60;2.10;;;;;;;36.55;23.21;99496.73;135363;1280;22528;-60
2023/08/11 10:57:17;;;;;;;8.10;2.20;;;;;;;37.24;23.58;99492.02;135339;1280;22557;-61
2023/08/11 11:00:20;;;;;;;7.30;2.30;;;;;;;37.73;22.96;99489.36;135332;1281;22560;-64
2023/08/11 11:03:22;;;;;;;5.30;2.10;;;;;;;38.36;23.02;99487.33;135055;1280;22549;-60
2023/08/11 11:06:25;;;;;;;8.20;2.40;;;;;;;38.12;20.63;99487.98;135254;1280;24735;-61
2023/08/11 11:09:28;;;;;;;5.60;2.20;;;;;;;37.55;21.37;99488.33;135337;1259;22550;-60
2023/08/11 11:12:31;;;;;;;8.70;2.30;;;;;;;36.95;22.18;99487.40;135367;1280;22534;-64
2023/08/11 11:15:33;;;;;;;5.40;2.30;;;;;;;36.44;22.13;99492.05;135314;1262;22523;-63
2023/08/11 11:18:35;;;;;;;7.80;2.30;;;;;;;35.78;22.03;99497.17;135315;1270;22530;-62
2023/08/11 11:21:38;;;;;;;6.00;2.00;;;;;;;35.41;21.56;99500.07;135083;1280;22533;-61
2023/08/11 11:24:40;;;;;;;5.70;2.10;;;;;;;35.28;21.90;99495.10;135167;1280;22545;-62
2023/08/11 11:27:43;;;;;;;4.80;1.80;;;;;;;35.82;21.67;99493.27;135272;1280;22547;-60
2023/08/11 11:30:45;;;;;;;6.40;2.40;;;;;;;36.45;21.61;99490.05;135318;1280;22533;-62
2023/08/11 11:33:48;;;;;;;6.10;2.50;;;;;;;36.17;19.92;99493.34;135361;1280;22549;-61
2023/08/11 11:36:50;;;;;;;6.90;2.30;;;;;;;36.15;20.96;99493.02;135331;1280;24036;-61
2023/08/11 11:39:52;;;;;;;7.40;2.30;;;;;;;36.31;21.51;99489.67;135348;1281;24249;-64
2023/08/11 11:42:55;;;;;;;10.20;2.20;;;;;;;36.39;21.16;99495.02;135342;1267;24244;-59
2023/08/11 11:45:58;;;;;;;5.90;2.10;;;;;;;35.99;20.07;99491.36;135353;1280;22546;-59
2023/08/11 11:49:00;;;;;;;6.60;2.10;;;;;;;36.15;21.28;99485.36;135361;1280;22532;-63
2023/08/11 11:52:03;;;;;;;7.40;2.50;;;;;;;36.40;20.85;99486.58;135351;1280;22563;-60
2023/08/11 11:55:05;;;;;;;5.40;2.10;;;;;;;36.93;21.33;99486.94;135341;1280;22543;-61
2023/08/11 11:58:08;;;;;;;6.90;2.40;;;;;;;37.28;20.26;99491.20;135352;1280;22620;-60
2023/08/11 12:01:11;;;;;;;8.80;2.30;;;;;;;37.41;19.71;99495.09;135324;1281;22518;-60
2023/08/11 12:04:14;;;;;;;4.30;2.00;;;;;;;37.12;19.33;99497.38;135285;1281;22517;-62
2023/08/11 12:07:17;;;;;;;5.20;2.20;;;;;;;36.38;19.88;99490.64;135358;1281;22609;-61
2023/08/11 12:10:21;;;;;;;7.70;2.30;;;;;;;35.59;19.79;99490.63;135329;1270;22540;-59
2023/08/11 12:13:23;;;;;;;5.40;2.00;;;;;;;34.72;20.57;99489.61;135357;1281;25326;-62
2023/08/11 12:16:26;;;;;;;7.00;2.20;;;;;;;34.56;21.45;99488.64;135312;1267;22975;-61
2023/08/11 12:19:28;;;;;;;8.20;2.50;;;;;;;34.77;22.33;99480.39;135327;1281;22546;-60
2023/08/11 12:22:31;;;;;;;7.60;2.60;;;;;;;34.75;21.76;99485.86;135310;1281;22534;-60
2023/08/11 12:25:33;;;;;;;8.60;2.60;;;;;;;34.80;22.50;99484.32;135212;1263;22535;-61
2023/08/11 12:28:35;;;;;;;8.70;2.40;;;;;;;34.71;22.63;99484.30;135318;1281;26519;-60
2023/08/11 12:31:38;;;;;;;8.50;2.50;;;;;;;34.75;22.82;99484.56;135359;1262;22537;-61
2023/08/11 12:34:40;;;;;;;6.40;2.20;;;;;;;34.66;22.13;99487.41;135319;1270;22559;-62
2023/08/11 12:37:43;;;;;;;14.00;2.80;;;;;;;35.11;22.61;99485.77;135322;1281;22632;-64
2023/08/11 12:40:45;;;;;;;7.80;2.50;;;;;;;35.97;22.34;99476.95;135357;1281;22535;-61
2023/08/11 12:43:48;;;;;;;8.00;2.10;;;;;;;36.78;21.31;99476.92;135337;1281;22544;-64
2023/08/11 12:46:50;;;;;;;9.20;2.40;;;;;;;36.45;20.89;99489.17;135385;1281;22536;-65
2023/08/11 12:49:53;;;;;;;6.50;2.20;;;;;;;35.43;20.49;99481.41;135200;1281;22719;-62
2023/08/11 12:52:55;;;;;;;7.30;2.20;;;;;;;34.99;21.88;99477.73;135258;1281;24627;-60
2023/08/11 12:55:57;;;;;;;8.20;2.20;;;;;;;35.17;21.87;99477.45;135213;1281;22537;-62
2023/08/11 12:59:00;;;;;;;6.60;2.30;;;;;;;35.36;22.17;99481.28;135378;1281;22535;-60
2023/08/11 13:02:03;;;;;;;8.30;2.30;;;;;;;35.26;22.24;99481.80;135412;1281;22538;-63
2023/08/11 13:05:05;;;;;;;6.70;2.50;;;;;;;34.86;21.83;99484.55;135338;1281;22532;-60
2023/08/11 13:08:07;;;;;;;8.30;2.50;;;;;;;34.27;21.57;99484.69;135329;1281;22525;-62
2023/08/11 13:11:10;;;;;;;7.10;2.80;;;;;;;33.68;22.59;99490.92;135376;1281;22556;-63
2023/08/11 13:14:12;;;;;;;8.10;2.40;;;;;;;33.54;22.70;99486.84;135354;1281;22553;-63
2023/08/11 13:17:15;;;;;;;8.00;2.20;;;;;;;33.63;22.84;99489.48;135338;1281;22538;-63
2023/08/11 13:20:17;;;;;;;8.60;2.60;;;;;;;33.45;23.00;99488.08;135317;1281;24262;-63
2023/08/11 13:23:19;;;;;;;10.70;2.30;;;;;;;33.40;23.91;99485.92;135256;1281;23305;-59
2023/08/11 13:26:22;;;;;;;8.10;2.20;;;;;;;33.31;23.57;99487.02;135096;1270;22553;-65
2023/08/11 13:29:24;;;;;;;7.90;2.20;;;;;;;33.30;23.03;99486.03;135331;1281;22553;-65
2023/08/11 13:32:27;;;;;;;7.80;2.70;;;;;;;33.40;22.74;99478.60;135324;1281;22530;-66
2023/08/11 13:35:29;;;;;;;7.40;2.50;;;;;;;33.49;23.18;99478.33;135366;1281;22523;-65
2023/08/11 13:38:31;;;;;;;8.30;2.20;;;;;;;33.48;22.85;99482.90;135377;1267;22554;-64
2023/08/11 13:41:34;;;;;;;7.20;2.40;;;;;;;33.14;22.30;99486.02;135380;1281;22595;-67
2023/08/11 13:44:36;;;;;;;10.80;2.30;;;;;;;33.37;22.64;99482.02;135368;1281;25411;-66
2023/08/11 13:47:39;;;;;;;6.00;2.30;;;;;;;33.62;22.56;99483.52;135352;1281;22529;-66
2023/08/11 13:50:42;;;;;;;5.70;2.30;;;;;;;33.80;22.64;99481.25;135289;1281;22554;-61
2023/08/11 13:53:44;;;;;;;7.60;2.20;;;;;;;34.04;22.74;99482.89;135375;1281;22531;-66
2023/08/11 13:56:46;;;;;;;9.60;2.50;;;;;;;34.17;23.15;99480.62;135359;1281;22618;-64
2023/08/11 13:59:49;;;;;;;11.30;2.60;;;;;;;34.42;22.98;99472.52;135337;1280;22543;-63
2023/08/11 14:02:51;;;;;;;6.80;2.50;;;;;;;34.48;22.23;99475.09;135348;1281;22529;-65
2023/08/11 14:05:54;;;;;;;8.20;2.40;;;;;;;34.71;22.48;99474.02;135299;1281;22533;-66
2023/08/11 14:08:58;;;;;;;8.40;2.60;;;;;;;34.90;22.27;99470.88;135363;1281;22534;-66
2023/08/11 14:12:00;;;;;;;7.50;2.60;;;;;;;35.01;22.56;99467.47;135329;1281;22535;-63